Flight Track Log - Related Links

Times and Time Zones

All times are in EDT time to prevent confusion due to time zone crossing. See the SKW6330 flight status page for this flight to view local times or setup timezone preferences in your user account.

Time Position Orientation Groundspeed Altitude Reporting Facility
EDT Latitude Longitude Course Direction KTS MPH feet Rate Location/Type
Tue 09:40:55 AM 43.0944 -89.3689 270° West 152 175 2,600  Level Chicago Center
Tue 09:41:57 AM 43.0956 -89.4419 271° West 184 212 5,500 2,323 Climbing Chicago Center
Tue 09:42:59 AM 43.0942 -89.5325 269° West 232 267 7,400 2,081 Climbing Chicago Center
Tue 09:44:01 AM 43.0953 -89.6233 271° West 240 276 9,800 2,419 Climbing Chicago Center
Tue 09:45:03 AM 43.0967 -89.7350 271° West 250 288 12,400 2,226 Climbing Chicago Center
Tue 09:46:00 AM 43.1333 -90.1618 270° West  Level FlightAware Approximate
Tue 09:46:05 AM 43.0981 -89.8347 271° West 260 299 14,400  Level Chicago Center
Tue 09:47:07 AM 43.1000 -89.9297 272° West 267 307 15,900 1,548 Climbing Chicago Center
Tue 09:48:09 AM 43.1389 -90.0372 296° West 289 333 17,600 1,742 Climbing Chicago Center
Tue 09:49:11 AM 43.1719 -90.1433 293° West 301 346 19,500 1,548 Climbing Chicago Center
Tue 09:50:13 AM 43.1944 -90.2536 286° West 304 350 20,800 1,355 Climbing Chicago Center
Tue 09:51:15 AM 43.2111 -90.3786 280° West 307 353 22,300 1,258 Climbing Chicago Center
Tue 09:52:17 AM 43.2272 -90.4958 281° West 314 361 23,400 1,016 Climbing Chicago Center
Tue 09:53:19 AM 43.2428 -90.6164 280° West 324 373 24,400 939 Climbing Chicago Center
Tue 09:54:12 AM 43.2325 -90.7397 264° West 329 379 25,200 887 Climbing Minneapolis Center
Tue 09:55:14 AM 43.2244 -90.8664 265° West 335 386 26,100 878 Climbing Minneapolis Center
Tue 09:56:15 AM 43.2172 -90.9942 266° West 339 390 27,000 885 Climbing Minneapolis Center
Tue 09:57:16 AM 43.2094 -91.1250 265° West 346 398 27,900 829 Climbing Minneapolis Center
Tue 09:58:18 AM 43.2003 -91.2564 265° West 350 403 28,700 927 Climbing Minneapolis Center
Tue 09:59:19 AM 43.1917 -91.4158 266° West 354 407 29,800 885 Climbing Minneapolis Center
Tue 10:00:20 AM 43.1811 -91.5483 264° West 355 409 30,500 683 Climbing Minneapolis Center
Tue 10:01:22 AM 43.1725 -91.6797 265° West 353 406 31,200 683 Climbing Minneapolis Center
Tue 10:02:23 AM 43.1633 -91.8117 265° West 355 409 31,900 393 Climbing Minneapolis Center
Tue 10:03:24 AM 43.1531 -91.9431 264° West 354 407 32,000 49 Climbing Minneapolis Center
Tue 10:04:26 AM 43.1417 -92.1069 265° West 363 418 32,000  Level Minneapolis Center
Tue 10:05:27 AM 43.1317 -92.2489 265° West 376 433 32,000  Level Minneapolis Center
Tue 10:06:28 AM 43.1206 -92.3942 264° West 388 447 32,000  Level Minneapolis Center
Tue 10:07:29 AM 43.1089 -92.5439 264° West 397 457 32,000  Level Minneapolis Center
Tue 10:08:31 AM 43.0981 -92.6886 264° West 391 450 32,000  Level Minneapolis Center
Tue 10:09:32 AM 43.0869 -92.8322 264° West 386 444 32,000  Level Minneapolis Center
Tue 10:10:33 AM 43.0758 -92.9750 264° West 383 441 32,000  Level Minneapolis Center
Tue 10:11:35 AM 43.0622 -93.1461 264° West 382 440 32,000  Level Minneapolis Center
Tue 10:12:36 AM 43.0486 -93.2881 263° West 380 437 32,000  Level Minneapolis Center
Tue 10:13:37 AM 43.0378 -93.4311 264° West 382 440 32,000  Level Minneapolis Center
Tue 10:14:39 AM 43.0247 -93.5739 263° West 382 440 32,000  Level Minneapolis Center
Tue 10:15:40 AM 43.0142 -93.7156 264° West 378 435 32,000  Level Minneapolis Center
Tue 10:16:41 AM 43.0025 -93.8586 264° West 381 438 32,000  Level Minneapolis Center
Tue 10:17:43 AM 42.9903 -94.0019 263° West 382 440 32,000  Level Minneapolis Center
Tue 10:18:44 AM 42.9736 -94.1731 262° West 383 441 32,000  Level Minneapolis Center
Tue 10:19:46 AM 42.9608 -94.3164 263° West 382 440 32,000  Level Minneapolis Center
Tue 10:20:47 AM 42.9458 -94.4578 262° West 382 440 32,000  Level Minneapolis Center
Tue 10:21:48 AM 42.9364 -94.5992 265° West 380 437 32,000  Level Minneapolis Center
Tue 10:22:50 AM 42.9203 -94.7406 261° West 373 429 32,000  Level Minneapolis Center
Tue 10:23:51 AM 42.9069 -94.8828 263° West 377 434 32,000  Level Minneapolis Center
Tue 10:24:52 AM 42.8931 -95.0258 262° West 379 436 32,000  Level Minneapolis Center
Tue 10:25:54 AM 42.8764 -95.1947 262° West 377 434 32,000  Level Minneapolis Center
Tue 10:26:55 AM 42.8617 -95.3361 262° West 377 434 32,000  Level Minneapolis Center
Tue 10:27:57 AM 42.8469 -95.4775 262° West 378 435 32,000  Level Minneapolis Center
Tue 10:28:58 AM 42.8325 -95.6189 262° West 377 434 32,000  Level Minneapolis Center
Tue 10:30:00 AM 42.8178 -95.7597 262° West 377 434 32,000  Level Minneapolis Center
Tue 10:31:02 AM 42.8036 -95.9019 262° West 378 435 32,000  Level Minneapolis Center
Tue 10:32:03 AM 42.7883 -96.0431 262° West 377 434 32,000  Level Minneapolis Center
Tue 10:33:05 AM 42.7731 -96.1836 262° West 375 432 32,000  Level Minneapolis Center
Tue 10:34:06 AM 42.7575 -96.3242 261° West 375 432 32,000  Level Minneapolis Center
Tue 10:35:08 AM 42.7389 -96.4914 261° West 372 428 32,000  Level Minneapolis Center
Tue 10:36:09 AM 42.7228 -96.6300 261° West 372 428 32,000  Level Minneapolis Center
Tue 10:37:11 AM 42.7067 -96.7700 261° West 374 430 32,000  Level Minneapolis Center
Tue 10:38:12 AM 42.6908 -96.9097 261° West 373 429 32,000  Level Minneapolis Center
Tue 10:39:14 AM 42.6750 -97.0428 261° West 374 430 32,000  Level Minneapolis Center
Tue 10:40:15 AM 42.6592 -97.1819 261° West 373 429 32,000  Level Minneapolis Center
Tue 10:41:17 AM 42.6431 -97.3189 261° West 370 426 32,000  Level Minneapolis Center
Tue 10:42:19 AM 42.6225 -97.4869 261° West 375 432 32,000  Level Minneapolis Center
Tue 10:43:20 AM 42.6058 -97.6225 261° West 368 423 32,000  Level Minneapolis Center
Tue 10:44:22 AM 42.5897 -97.7586 261° West 367 422 32,000  Level Minneapolis Center
Tue 10:45:23 AM 42.5708 -97.9081 260° West 369 425 32,000  Level Minneapolis Center
Tue 10:46:25 AM 42.5533 -98.0442 260° West 368 423 32,000  Level Minneapolis Center
Tue 10:47:26 AM 42.5367 -98.1803 261° West 367 422 32,000  Level Minneapolis Center
Tue 10:48:28 AM 42.5197 -98.3167 260° West 367 422 32,000  Level Minneapolis Center
Tue 10:49:29 AM 42.5011 -98.4522 259° West 367 422 32,000  Level Minneapolis Center
Tue 10:50:31 AM 42.4831 -98.5894 260° West 370 426 32,000  Level Minneapolis Center
Tue 10:51:32 AM 42.4542 -98.7219 254° West 370 426 32,000  Level Minneapolis Center
Tue 10:52:34 AM 42.4008 -98.8403 239° Southwest 370 426 32,000  Level Minneapolis Center
Tue 10:53:35 AM 42.3369 -98.9831 239° Southwest 371 427 32,000  Level Minneapolis Center
Tue 10:55:00 AM 42.2281 -99.0684 239° Southwest  Level FlightAware Approximate
Tue 11:02:00 AM 41.9080 -99.8902 243° Southwest  Level FlightAware Approximate
Tue 11:03:00 AM 41.8627 -100.0076 243° Southwest  Level FlightAware Approximate
Tue 11:04:00 AM 41.8167 -100.1244 241° Southwest  Level FlightAware Approximate
Tue 11:05:00 AM 41.7695 -100.2403 241° Southwest  Level FlightAware Approximate
Tue 11:06:00 AM 41.7223 -100.3560 241° Southwest  Level FlightAware Approximate
Tue 11:07:00 AM 41.6749 -100.4716 241° Southwest  Level FlightAware Approximate
Tue 11:08:00 AM 41.6274 -100.5870 241° Southwest  Level FlightAware Approximate
Tue 11:09:00 AM 41.5798 -100.7023 241° Southwest  Level FlightAware Approximate
Tue 11:10:00 AM 41.5320 -100.8174 241° Southwest  Level FlightAware Approximate
Tue 11:11:00 AM 41.4842 -100.9323 241° Southwest  Level FlightAware Approximate
Tue 11:12:00 AM 41.4362 -101.0470 241° Southwest  Level FlightAware Approximate
Tue 11:13:00 AM 41.3902 -101.1629 246° West  Level FlightAware Approximate
Tue 11:14:00 AM 41.3502 -101.2828 246° West  Level FlightAware Approximate
Tue 11:15:00 AM 41.3129 -101.4042 248° West  Level FlightAware Approximate
Tue 11:16:00 AM 41.2750 -101.5251 246° West  Level FlightAware Approximate
Tue 11:17:00 AM 41.2352 -101.6449 246° West  Level FlightAware Approximate
Tue 11:18:00 AM 41.1953 -101.7645 246° West  Level FlightAware Approximate
Tue 11:19:00 AM 41.1566 -101.8848 249° West  Level FlightAware Approximate
Tue 11:20:00 AM 41.1212 -102.0067 249° West  Level FlightAware Approximate
Tue 11:21:00 AM 41.0856 -102.1286 249° West  Level FlightAware Approximate
Tue 11:22:00 AM 41.0499 -102.2503 248° West  Level FlightAware Approximate
Tue 11:23:00 AM 41.0135 -102.3715 248° West  Level FlightAware Approximate
Tue 11:24:00 AM 40.9769 -102.4927 248° West  Level FlightAware Approximate
Tue 11:25:00 AM 40.9402 -102.6136 248° West  Level FlightAware Approximate
Tue 11:26:00 AM 40.9034 -102.7345 248° West  Level FlightAware Approximate
Tue 11:27:00 AM 40.8623 -102.8526 242° Southwest  Level FlightAware Approximate
Tue 11:28:00 AM 40.8209 -102.9706 246° West  Level FlightAware Approximate
Tue 11:29:00 AM 40.7856 -103.0920 249° West  Level FlightAware Approximate
Tue 11:30:00 AM 40.7466 -103.2069 237° Southwest  Level FlightAware Approximate
Tue 11:31:00 AM 40.7011 -103.3212 249° West  Level FlightAware Approximate
Tue 11:32:00 AM 40.6721 -103.4429 241° Southwest  Level FlightAware Approximate
Tue 11:33:00 AM 40.6272 -103.5579 252° West  Level FlightAware Approximate
Tue 11:34:00 AM 40.5908 -103.6759 217° Southwest  Level FlightAware Approximate
Tue 11:35:00 AM 40.5160 -103.7593 229° Southwest  Level FlightAware Approximate
Tue 11:36:00 AM 40.4501 -103.8554 225° Southwest  Level FlightAware Approximate
Tue 11:37:00 AM 40.3832 -103.9502 229° Southwest  Level FlightAware Approximate
Tue 11:38:00 AM 40.3500 -104.0630 270° West  Level FlightAware Approximate
Tue 11:39:00 AM 40.3500 -104.1922 270° West  Level FlightAware Approximate
Tue 11:40:00 AM 40.3500 -104.3214 270° West  Level FlightAware Approximate
Tue 11:41:00 AM 40.3499 -104.4506 258° West  Level FlightAware Approximate
Tue 11:42:00 AM 40.3128 -104.5551 191° South  Level FlightAware Approximate
Tue 11:43:00 AM 40.2160 -104.5784 190° South  Level FlightAware Approximate
Tue 11:44:00 AM 40.1190 -104.6008 190° South  Level FlightAware Approximate
Tue 11:45:00 AM 40.0221 -104.6236 191° South  Level FlightAware Approximate
Tue 11:46:00 AM 39.9254 -104.6478 191° South  Level FlightAware Approximate
Tue 11:47:00 AM 39.8617 -104.6732 201° Southwest  Level Estimated
Tue 11:48:00 AM 39.8617 -104.6732 201° Southwest  Level Estimated
Tue 11:49:00 AM 39.8617 -104.6732 201° Southwest  Level Estimated
Tue 11:50:00 AM 39.8617 -104.6732 201° Southwest  Level Estimated
Tue 11:51:00 AM 39.8617 -104.6732 201° Southwest  Level Estimated
Tue 11:52:00 AM 39.8617 -104.6732 201° Southwest  Level Estimated
Tue 11:53:00 AM 39.8617 -104.6732 201° Southwest  Level Estimated
Tue 11:54:00 AM 39.8617 -104.6732 201° Southwest  Level Estimated
Tue 11:55:00 AM 39.8617 -104.6732 201° Southwest  Level Estimated
Tue 11:56:00 AM 39.8617 -104.6732 201° Southwest  Level Estimated
Tue 11:57:00 AM 39.8617 -104.6732 201° Southwest  Level Estimated
Tue 11:58:00 AM 39.8617 -104.6732 201° Southwest  Level Estimated
Tue 11:59:00 AM 39.8617 -104.6732 201° Southwest  Level Estimated
Tue 12:00:00 PM 39.8617 -104.6732 201° Southwest  Level Estimated
Tue 12:01:00 PM 39.8617 -104.6732 201° Southwest  Level Estimated

Login

Don't have an account? Register now (free) for customized features, flight alerts, and more!